createdAt,value
2018-05-04T00:01:12.641Z,11.30
2018-05-04T00:03:41.910Z,11.30
2018-05-04T00:06:11.955Z,11.20
2018-05-04T00:08:41.280Z,11.20
2018-05-04T00:11:10.577Z,11.20
2018-05-04T00:13:39.850Z,11.30
2018-05-04T00:16:09.927Z,11.20
2018-05-04T00:18:39.224Z,11.20
2018-05-04T00:21:08.483Z,11.20
2018-05-04T00:23:37.981Z,11.20
2018-05-04T00:26:08.006Z,11.10
2018-05-04T00:28:37.281Z,11.10
2018-05-04T00:31:07.317Z,11.10
2018-05-04T00:33:36.590Z,11.10
2018-05-04T00:36:06.720Z,11.10
2018-05-04T00:38:36.943Z,11.10
2018-05-04T00:41:07.550Z,11.10
2018-05-04T00:43:36.873Z,11.10
2018-05-04T00:46:06.902Z,11.00
2018-05-04T00:48:36.209Z,10.90
2018-05-04T00:51:05.501Z,11.00
2018-05-04T00:57:19.858Z,11.10
2018-05-04T00:59:49.085Z,11.10
2018-05-04T01:02:18.388Z,11.00
2018-05-04T01:04:47.639Z,11.10
2018-05-04T01:07:16.908Z,11.10
2018-05-04T01:09:46.185Z,11.10
2018-05-04T01:12:15.461Z,11.10
2018-05-04T01:14:45.492Z,11.10
2018-05-04T01:17:15.524Z,11.10
2018-05-04T01:19:44.807Z,11.10
2018-05-04T01:22:14.253Z,11.10
2018-05-04T01:24:43.545Z,11.10
2018-05-04T01:27:12.801Z,11.10
2018-05-04T01:29:42.894Z,11.10
2018-05-04T01:32:12.117Z,11.10
2018-05-04T01:34:42.167Z,11.00
2018-05-04T01:37:11.455Z,11.00
2018-05-04T01:39:40.760Z,11.00
2018-05-04T01:42:10.070Z,11.00
2018-05-04T01:44:39.381Z,11.00
2018-05-04T01:47:08.646Z,11.00
2018-05-04T01:49:37.909Z,11.00
2018-05-04T01:52:07.154Z,11.00
2018-05-04T01:54:36.463Z,10.90
2018-05-04T01:57:05.733Z,11.00
2018-05-04T01:59:34.981Z,11.00
2018-05-04T02:02:04.248Z,11.10
2018-05-04T02:04:33.509Z,11.00
2018-05-04T02:07:02.778Z,11.00
2018-05-04T02:09:32.069Z,11.10
2018-05-04T02:12:01.349Z,11.10
2018-05-04T02:14:30.646Z,11.10
2018-05-04T02:16:59.930Z,11.10
2018-05-04T02:19:29.184Z,11.10
2018-05-04T02:21:58.551Z,11.10
2018-05-04T02:24:27.843Z,11.00
2018-05-04T02:26:58.057Z,11.00
2018-05-04T02:29:28.174Z,11.00
2018-05-04T02:31:58.293Z,11.00
2018-05-04T02:34:28.344Z,11.00
2018-05-04T02:36:57.652Z,11.00
2018-05-04T02:39:27.014Z,11.00
2018-05-04T02:41:57.053Z,10.90
2018-05-04T02:44:26.409Z,10.90
2018-05-04T02:46:55.659Z,10.80
2018-05-04T02:49:24.905Z,10.80
2018-05-04T02:51:54.166Z,10.80
2018-05-04T02:54:23.445Z,10.70
2018-05-04T02:56:53.510Z,10.50
2018-05-04T02:59:22.765Z,10.50
2018-05-04T03:01:52.041Z,10.50
2018-05-04T03:04:21.962Z,10.50
2018-05-04T03:06:52.041Z,10.50
2018-05-04T03:09:21.307Z,10.50
2018-05-04T03:11:50.577Z,10.40
2018-05-04T03:14:19.918Z,10.30
2018-05-04T03:16:49.198Z,10.20
2018-05-04T03:19:19.303Z,10.20
2018-05-04T03:21:48.554Z,10.20
2018-05-04T03:24:17.837Z,10.10
2018-05-04T03:26:47.121Z,10.20
2018-05-04T03:29:17.143Z,10.10
2018-05-04T03:31:46.542Z,10.10
2018-05-04T03:34:15.789Z,10.20
2018-05-04T03:36:45.101Z,10.10
2018-05-04T03:39:14.371Z,10.10
2018-05-04T03:41:43.689Z,10.10
2018-05-04T03:44:12.965Z,10.10
2018-05-04T03:46:47.149Z,10.00
2018-05-04T03:49:17.161Z,9.90
2018-05-04T03:51:47.190Z,9.80
2018-05-04T03:54:16.592Z,9.80
2018-05-04T03:56:45.966Z,9.70
2018-05-04T04:02:45.799Z,9.80
2018-05-04T04:05:15.031Z,9.80
2018-05-04T04:07:47.853Z,9.80
2018-05-04T04:10:17.318Z,9.80
2018-05-04T04:12:46.573Z,9.90
2018-05-04T04:15:15.835Z,9.90
2018-05-04T04:17:48.895Z,9.90
2018-05-04T04:20:18.912Z,10.00
2018-05-04T04:22:48.938Z,10.10
2018-05-04T04:25:18.231Z,10.00
2018-05-04T04:27:48.257Z,10.10
2018-05-04T04:30:17.518Z,10.10
2018-05-04T04:32:46.792Z,10.20
2018-05-04T04:35:16.060Z,10.30
2018-05-04T04:37:45.329Z,10.30
2018-05-04T04:40:14.606Z,10.30
2018-05-04T04:42:43.850Z,10.30
2018-05-04T04:45:13.165Z,10.40
2018-05-04T04:47:42.430Z,10.60
2018-05-04T04:50:11.686Z,10.70
2018-05-04T04:52:40.968Z,10.80
2018-05-04T04:55:10.225Z,10.80
2018-05-04T04:57:39.505Z,10.80
2018-05-04T05:00:08.776Z,10.90
2018-05-04T05:02:38.062Z,11.00
2018-05-04T05:05:07.339Z,11.10
2018-05-04T05:07:37.356Z,11.20
2018-05-04T05:10:06.659Z,11.20
2018-05-04T05:12:36.692Z,11.50
2018-05-04T05:15:06.722Z,11.60
2018-05-04T05:17:35.997Z,11.60
2018-05-04T05:20:06.034Z,11.70
2018-05-04T05:22:35.346Z,11.70
2018-05-04T05:25:04.619Z,11.80
2018-05-04T05:27:34.641Z,11.80
2018-05-04T05:30:04.660Z,11.60
2018-05-04T05:32:33.952Z,11.70
2018-05-04T05:35:04.032Z,11.80
2018-05-04T05:37:37.363Z,11.80
2018-05-04T05:40:07.392Z,12.00
2018-05-04T05:42:36.736Z,12.00
2018-05-04T05:45:05.985Z,12.30
2018-05-04T05:47:35.924Z,12.40
2018-05-04T05:50:05.988Z,13.50
2018-05-04T05:52:35.286Z,15.60
2018-05-04T05:55:06.052Z,20.30
2018-05-04T05:57:36.074Z,22.00
2018-05-04T06:00:05.402Z,21.90
2018-05-04T06:02:34.685Z,23.30
2018-05-04T06:05:03.970Z,24.80
2018-05-04T06:07:34.327Z,27.30
2018-05-04T06:10:03.592Z,27.20
2018-05-04T06:12:33.657Z,28.40
2018-05-04T06:15:02.975Z,28.30
2018-05-04T06:17:32.223Z,29.30
2018-05-04T06:20:02.253Z,30.40
2018-05-04T06:22:31.531Z,30.40
2018-05-04T06:25:01.652Z,30.10
2018-05-04T06:27:30.933Z,30.10
2018-05-04T06:30:00.292Z,30.50
2018-05-04T06:32:29.594Z,31.10
2018-05-04T06:34:58.853Z,29.80
2018-05-04T06:37:28.872Z,30.10
2018-05-04T06:39:58.173Z,30.00
2018-05-04T06:42:29.047Z,30.30
2018-05-04T06:44:58.353Z,30.30
2018-05-04T06:47:27.632Z,30.30
2018-05-04T06:49:56.901Z,31.30
2018-05-04T06:52:26.932Z,30.00
2018-05-04T06:54:56.236Z,30.00
2018-05-04T06:57:26.252Z,30.90
2018-05-04T06:59:56.046Z,30.90
2018-05-04T07:02:26.078Z,31.20
2018-05-04T07:04:55.329Z,31.20
2018-05-04T07:07:24.585Z,30.50
2018-05-04T07:09:53.859Z,30.40
2018-05-04T07:12:23.892Z,31.00
2018-05-04T07:14:53.904Z,30.60
2018-05-04T07:17:23.921Z,31.30
2018-05-04T07:19:53.965Z,31.20
2018-05-04T07:22:23.233Z,31.20
2018-05-04T07:24:52.513Z,32.20
2018-05-04T07:27:21.804Z,32.80
2018-05-04T07:29:51.055Z,32.60
2018-05-04T07:32:20.312Z,32.80
2018-05-04T07:34:49.642Z,31.90
2018-05-04T07:37:19.729Z,32.10
2018-05-04T07:39:49.073Z,32.00
2018-05-04T07:42:18.347Z,31.30
2018-05-04T07:44:47.641Z,31.30
2018-05-04T07:47:17.692Z,32.50
2018-05-04T07:49:46.982Z,32.50
2018-05-04T07:52:17.007Z,33.80
2018-05-04T07:54:46.277Z,33.80
2018-05-04T07:57:15.553Z,34.00
2018-05-04T07:59:44.828Z,33.30
2018-05-04T08:02:14.090Z,33.60
2018-05-04T08:04:44.144Z,32.30
2018-05-04T08:07:13.441Z,32.20
2018-05-04T08:09:42.713Z,32.20
2018-05-04T08:12:12.749Z,32.90
2018-05-04T08:14:42.004Z,32.90
2018-05-04T08:17:11.269Z,33.20
2018-05-04T08:19:40.534Z,33.20
2018-05-04T08:22:09.817Z,32.00
2018-05-04T08:24:39.789Z,32.20
2018-05-04T08:27:09.792Z,32.90
2018-05-04T08:29:39.073Z,33.40
2018-05-04T08:32:08.353Z,33.00
2018-05-04T08:34:38.446Z,34.90
2018-05-04T08:37:07.705Z,34.90
2018-05-04T08:39:36.966Z,35.50
2018-05-04T08:42:06.251Z,35.70
2018-05-04T08:44:35.590Z,34.60
2018-05-04T08:47:05.605Z,34.80
2018-05-04T08:49:34.864Z,34.80
2018-05-04T08:52:04.129Z,35.10
2018-05-04T08:54:33.401Z,34.30
2018-05-04T08:57:03.468Z,33.40
2018-05-04T08:59:32.717Z,33.40
2018-05-04T09:02:02.826Z,33.50
2018-05-04T09:04:32.857Z,33.30
2018-05-04T09:07:02.136Z,33.30
2018-05-04T09:09:31.380Z,33.60
2018-05-04T09:12:00.649Z,33.90
2018-05-04T09:14:30.752Z,33.70
2018-05-04T09:17:00.023Z,33.60
2018-05-04T09:19:29.361Z,33.30
2018-05-04T09:21:59.514Z,32.40
2018-05-04T09:24:29.522Z,32.90
2018-05-04T09:26:58.782Z,32.90
2018-05-04T09:29:28.116Z,32.80
2018-05-04T09:31:57.388Z,31.20
2018-05-04T09:34:26.664Z,29.40
2018-05-04T09:36:55.926Z,28.40
2018-05-04T09:39:25.244Z,26.70
2018-05-04T09:41:55.240Z,25.70
2018-05-04T09:44:24.518Z,25.70
2018-05-04T09:46:53.809Z,25.70
2018-05-04T09:49:23.129Z,25.70
2018-05-04T09:51:52.420Z,26.30
2018-05-04T09:54:23.573Z,28.30
2018-05-04T09:56:53.597Z,27.80
2018-05-04T09:59:22.904Z,27.70
2018-05-04T10:01:52.229Z,27.50
2018-05-04T10:04:22.261Z,28.30
2018-05-04T10:06:51.518Z,29.70
2018-05-04T10:09:20.785Z,30.50
2018-05-04T10:11:50.831Z,31.40
2018-05-04T10:14:20.086Z,31.30
2018-05-04T10:16:49.359Z,31.70
2018-05-04T10:19:18.628Z,32.10
2018-05-04T10:21:48.672Z,31.90
2018-05-04T10:24:17.941Z,31.80
2018-05-04T10:26:47.957Z,33.70
2018-05-04T10:29:17.230Z,33.70
2018-05-04T10:31:46.958Z,33.50
2018-05-04T10:34:17.023Z,31.90
2018-05-04T10:36:46.292Z,31.90
2018-05-04T10:39:16.332Z,32.30
2018-05-04T10:41:45.581Z,32.30
2018-05-04T10:44:14.845Z,32.80
2018-05-04T10:46:44.106Z,33.70
2018-05-04T10:49:18.841Z,33.80
2018-05-04T10:51:48.855Z,33.70
2018-05-04T10:54:18.154Z,33.80
2018-05-04T10:56:47.421Z,34.70
2018-05-04T10:59:16.671Z,34.80
2018-05-04T11:01:45.936Z,33.90
2018-05-04T11:04:15.975Z,32.50
2018-05-04T11:06:45.229Z,32.50
2018-05-04T11:09:14.490Z,32.50
2018-05-04T11:11:43.751Z,32.70
2018-05-04T11:14:13.803Z,32.80
2018-05-04T11:16:43.080Z,32.80
2018-05-04T11:19:13.104Z,32.60
2018-05-04T11:21:42.388Z,32.50
2018-05-04T11:24:12.510Z,30.60
2018-05-04T11:26:42.547Z,29.80
2018-05-04T11:29:11.805Z,29.70
2018-05-04T11:31:41.082Z,28.50
2018-05-04T11:34:10.336Z,27.60
2018-05-04T11:36:40.356Z,26.50
2018-05-04T11:39:13.450Z,26.50
2018-05-04T11:41:42.726Z,26.00
2018-05-04T11:44:12.764Z,25.10
2018-05-04T11:46:42.787Z,24.50
2018-05-04T11:49:12.058Z,24.40
2018-05-04T11:51:42.199Z,24.10
2018-05-04T11:54:12.232Z,23.90
2018-05-04T11:56:41.493Z,23.90
2018-05-04T11:59:10.774Z,24.00
2018-05-04T12:01:40.020Z,23.90
2018-05-04T12:04:09.334Z,23.90
2018-05-04T12:06:38.569Z,24.10
2018-05-04T12:09:07.825Z,24.20
2018-05-04T12:11:41.007Z,24.40
2018-05-04T12:14:10.274Z,24.40
2018-05-04T12:16:39.574Z,24.60
2018-05-04T12:19:08.845Z,24.40
2018-05-04T12:21:38.206Z,24.30
2018-05-04T12:24:08.274Z,24.30
2018-05-04T12:26:37.536Z,24.30
2018-05-04T12:29:07.160Z,24.20
2018-05-04T12:31:36.445Z,24.40
2018-05-04T12:34:06.295Z,24.60
2018-05-04T12:36:35.671Z,24.50
2018-05-04T12:39:04.919Z,24.40
2018-05-04T12:41:34.159Z,24.30
2018-05-04T12:44:03.476Z,24.40
2018-05-04T12:46:32.747Z,24.40
2018-05-04T12:49:02.043Z,24.10
2018-05-04T12:51:32.080Z,23.80
2018-05-04T12:54:01.351Z,23.80
2018-05-04T12:56:31.385Z,23.70
2018-05-04T12:59:00.668Z,23.70
2018-05-04T13:01:30.684Z,23.60
2018-05-04T13:04:05.454Z,23.60
2018-05-04T13:06:34.727Z,23.60
2018-05-04T13:09:04.746Z,24.10
2018-05-04T13:11:34.029Z,24.00
2018-05-04T13:14:04.077Z,24.20
2018-05-04T13:16:33.342Z,24.20
2018-05-04T13:19:02.645Z,24.20
2018-05-04T13:21:31.945Z,24.20
2018-05-04T13:24:02.145Z,24.10
2018-05-04T13:26:31.431Z,24.10
2018-05-04T13:29:00.696Z,24.10
2018-05-04T13:31:30.033Z,24.00
2018-05-04T13:33:59.302Z,23.60
2018-05-04T13:36:28.621Z,23.60
2018-05-04T13:38:57.889Z,24.00
2018-05-04T13:41:27.306Z,24.10
2018-05-04T13:43:57.372Z,24.10
2018-05-04T13:46:26.624Z,24.10
2018-05-04T13:48:55.885Z,24.10
2018-05-04T13:51:26.018Z,23.90
2018-05-04T13:53:55.969Z,23.60
2018-05-04T13:56:25.289Z,23.60
2018-05-04T13:58:54.935Z,23.60
2018-05-04T14:01:25.263Z,23.70
2018-05-04T14:03:55.753Z,23.70
2018-05-04T14:06:25.108Z,23.70
2018-05-04T14:08:58.401Z,23.60
2018-05-04T14:11:28.492Z,23.60
2018-05-04T14:13:57.744Z,23.60
2018-05-04T14:16:26.996Z,23.40
2018-05-04T14:18:56.255Z,23.40
2018-05-04T14:21:25.525Z,23.40
2018-05-04T14:23:55.139Z,23.50
2018-05-04T14:26:24.417Z,23.40
2018-05-04T14:28:54.454Z,23.60
2018-05-04T14:31:23.736Z,23.60
2018-05-04T14:33:53.773Z,23.40
2018-05-04T14:36:23.041Z,23.40
2018-05-04T14:38:53.169Z,23.50
2018-05-04T14:41:23.224Z,23.40
2018-05-04T14:43:52.477Z,23.40
2018-05-04T14:46:21.774Z,23.50
2018-05-04T14:48:51.026Z,23.30
2018-05-04T14:51:21.759Z,23.10
2018-05-04T14:53:51.031Z,23.10
2018-05-04T14:56:21.118Z,23.10
2018-05-04T14:58:50.366Z,23.10
2018-05-04T15:01:19.909Z,23.30
2018-05-04T15:03:49.867Z,23.20
2018-05-04T15:06:19.920Z,23.00
2018-05-04T15:08:49.217Z,23.00
2018-05-04T15:11:19.262Z,23.00
2018-05-04T15:13:48.612Z,23.10
2018-05-04T15:16:21.916Z,23.00
2018-05-04T15:18:52.740Z,23.00
2018-05-04T15:21:22.801Z,23.00
2018-05-04T15:23:52.245Z,23.00
2018-05-04T15:26:22.394Z,22.90
2018-05-04T15:28:51.687Z,22.80
2018-05-04T15:31:21.716Z,22.90
2018-05-04T15:33:51.046Z,22.90
2018-05-04T15:36:20.348Z,22.80
2018-05-04T15:38:49.642Z,22.60
2018-05-04T15:41:18.921Z,22.50
2018-05-04T15:43:48.211Z,22.50
2018-05-04T15:46:17.476Z,22.50
2018-05-04T15:48:53.732Z,22.30
2018-05-04T15:54:25.871Z,22.20
2018-05-04T15:56:55.892Z,22.30
2018-05-04T15:59:25.177Z,22.30
2018-05-04T16:01:54.494Z,22.30
2018-05-04T16:04:23.810Z,22.20
2018-05-04T16:06:53.105Z,22.20
2018-05-04T16:09:22.375Z,22.10
2018-05-04T16:11:51.650Z,22.20
2018-05-04T16:14:20.947Z,22.10
2018-05-04T16:16:51.713Z,21.70
2018-05-04T16:19:20.993Z,21.70
2018-05-04T16:21:50.260Z,21.60
2018-05-04T16:24:19.548Z,21.70
2018-05-04T16:26:48.886Z,21.70
2018-05-04T16:29:23.063Z,21.60
2018-05-04T16:31:52.411Z,21.60
2018-05-04T16:34:22.783Z,21.50
2018-05-04T16:36:52.068Z,21.40
2018-05-04T16:39:21.394Z,21.40
2018-05-04T16:41:50.678Z,21.40
2018-05-04T16:44:19.938Z,21.40
2018-05-04T16:46:55.426Z,21.40
2018-05-04T16:49:25.602Z,21.30
2018-05-04T16:51:54.852Z,21.30
2018-05-04T16:54:24.125Z,21.20
2018-05-04T16:56:53.387Z,21.10
2018-05-04T16:59:22.762Z,20.90
2018-05-04T17:01:52.033Z,20.80
2018-05-04T17:04:21.319Z,20.80
2018-05-04T17:06:51.364Z,20.80
2018-05-04T17:09:20.754Z,20.70
2018-05-04T17:11:50.813Z,20.60
2018-05-04T17:14:20.123Z,20.50
2018-05-04T17:16:50.212Z,20.30
2018-05-04T17:19:19.471Z,20.30
2018-05-04T17:21:48.852Z,20.30
2018-05-04T17:24:18.127Z,20.20
2018-05-04T17:26:47.455Z,20.00
2018-05-04T17:29:18.261Z,19.60
2018-05-04T17:31:47.550Z,19.70
2018-05-04T17:34:16.832Z,19.60
2018-05-04T17:36:46.099Z,19.50
2018-05-04T17:39:15.410Z,19.50
2018-05-04T17:41:45.485Z,19.40
2018-05-04T17:44:14.754Z,19.30
2018-05-04T17:46:44.075Z,19.30
2018-05-04T17:49:13.363Z,19.30
2018-05-04T17:51:42.657Z,19.20
2018-05-04T17:54:11.934Z,19.10
2018-05-04T17:56:41.985Z,19.00
2018-05-04T17:59:11.258Z,18.90
2018-05-04T18:01:41.281Z,18.80
2018-05-04T18:04:10.551Z,18.80
2018-05-04T18:06:40.606Z,18.70
2018-05-04T18:09:09.864Z,18.70
2018-05-04T18:11:40.058Z,18.60
2018-05-04T18:14:09.349Z,18.60
2018-05-04T18:16:38.619Z,18.50
2018-05-04T18:19:08.663Z,18.40
2018-05-04T18:21:39.489Z,18.30
2018-05-04T18:24:08.858Z,18.30
2018-05-04T18:26:38.089Z,18.20
2018-05-04T18:29:07.530Z,18.20
2018-05-04T18:31:36.883Z,18.10
2018-05-04T18:34:06.239Z,17.90
2018-05-04T18:36:35.476Z,17.80
2018-05-04T18:39:04.742Z,17.60
2018-05-04T18:41:34.843Z,17.40
2018-05-04T18:44:04.297Z,17.40
2018-05-04T18:46:33.595Z,17.30
2018-05-04T18:49:03.796Z,17.10
2018-05-04T18:51:33.908Z,17.00
2018-05-04T18:54:03.967Z,16.90
2018-05-04T18:56:33.233Z,16.80
2018-05-04T18:59:02.607Z,16.60
2018-05-04T19:01:31.857Z,16.50
2018-05-04T19:04:01.287Z,16.30
2018-05-04T19:06:30.628Z,16.20
2018-05-04T19:08:59.890Z,16.10
2018-05-04T19:11:29.212Z,16.10
2018-05-04T19:13:58.461Z,15.90
2018-05-04T19:16:27.739Z,15.80
2018-05-04T19:18:58.577Z,15.60
2018-05-04T19:21:28.646Z,15.50
2018-05-04T19:23:57.924Z,15.50
2018-05-04T19:26:27.190Z,15.50
2018-05-04T19:28:56.472Z,15.40
2018-05-04T19:31:25.768Z,15.30
2018-05-04T19:33:55.038Z,15.20
2018-05-04T19:36:24.319Z,15.10
2018-05-04T19:38:54.370Z,15.00
2018-05-04T19:41:23.668Z,14.90
2018-05-04T19:43:52.949Z,14.90
2018-05-04T19:46:22.228Z,14.80
2018-05-04T19:48:51.526Z,14.80
2018-05-04T19:51:20.834Z,14.70
2018-05-04T19:53:50.847Z,14.60
2018-05-04T19:56:20.149Z,14.60
2018-05-04T19:58:50.199Z,14.50
2018-05-04T20:01:19.442Z,14.50
2018-05-04T20:03:48.745Z,14.40
2018-05-04T20:06:22.541Z,14.20
2018-05-04T20:08:51.828Z,14.20
2018-05-04T20:11:21.992Z,14.10
2018-05-04T20:13:52.042Z,14.00
2018-05-04T20:16:21.311Z,14.00
2018-05-04T20:18:50.593Z,14.00
2018-05-04T20:21:20.636Z,13.90
2018-05-04T20:23:49.934Z,13.90
2018-05-04T20:26:19.217Z,13.80
2018-05-04T20:28:49.351Z,13.60
2018-05-04T20:31:18.558Z,13.60
2018-05-04T20:33:48.571Z,13.60
2018-05-04T20:36:18.506Z,13.60
2018-05-04T20:38:47.873Z,13.50
2018-05-04T20:41:17.178Z,13.50
2018-05-04T20:43:47.204Z,13.40
2018-05-04T20:46:16.499Z,13.40
2018-05-04T20:48:46.520Z,13.40
2018-05-04T20:51:15.823Z,13.30
2018-05-04T20:53:45.136Z,13.30
2018-05-04T20:56:14.404Z,13.30
2018-05-04T20:58:44.422Z,13.20
2018-05-04T21:01:14.461Z,13.10
2018-05-04T21:03:43.720Z,13.10
2018-05-04T21:06:13.032Z,13.10
2018-05-04T21:08:42.319Z,13.00
2018-05-04T21:11:11.584Z,13.00
2018-05-04T21:13:40.991Z,12.90
2018-05-04T21:16:10.271Z,12.90
2018-05-04T21:18:39.602Z,12.90
2018-05-04T21:21:10.244Z,12.80
2018-05-04T21:23:39.503Z,12.80
2018-05-04T21:26:08.786Z,12.80
2018-05-04T21:28:38.503Z,12.80
2018-05-04T21:31:08.517Z,12.70
2018-05-04T21:33:41.491Z,12.70
2018-05-04T21:36:11.508Z,12.70
2018-05-04T21:38:41.545Z,12.60
2018-05-04T21:41:14.683Z,12.60
2018-05-04T21:43:43.930Z,12.60
2018-05-04T21:46:13.196Z,12.60
2018-05-04T21:48:42.478Z,12.50
2018-05-04T21:51:11.805Z,12.50
2018-05-04T21:53:41.841Z,12.50
2018-05-04T21:56:11.131Z,12.50
2018-05-04T21:58:41.156Z,12.40
2018-05-04T22:01:10.469Z,12.40
2018-05-04T22:03:39.854Z,12.40
2018-05-04T22:06:09.136Z,12.40
2018-05-04T22:08:39.167Z,12.30
2018-05-04T22:11:09.217Z,12.30
2018-05-04T22:13:38.479Z,12.30
2018-05-04T22:16:07.742Z,12.30
2018-05-04T22:18:37.017Z,12.30
2018-05-04T22:21:06.269Z,12.30
2018-05-04T22:23:35.539Z,12.20
2018-05-04T22:26:04.803Z,12.10
2018-05-04T22:28:34.064Z,12.20
2018-05-04T22:31:03.321Z,12.10
2018-05-04T22:33:32.601Z,12.10
2018-05-04T22:36:01.922Z,12.10
2018-05-04T22:38:31.199Z,12.00
2018-05-04T22:41:00.471Z,12.00
2018-05-04T22:43:29.730Z,11.90
2018-05-04T22:45:59.005Z,12.00
2018-05-04T22:48:29.160Z,12.00
2018-05-04T22:50:58.402Z,12.00
2018-05-04T22:53:28.447Z,12.00
2018-05-04T22:55:57.726Z,12.00
2018-05-04T22:58:27.845Z,11.90
2018-05-04T23:00:57.112Z,11.90
2018-05-04T23:03:26.356Z,11.90
2018-05-04T23:05:56.571Z,11.80
2018-05-04T23:08:25.810Z,11.80
2018-05-04T23:10:55.104Z,11.80
2018-05-04T23:13:24.375Z,11.80
2018-05-04T23:15:54.407Z,11.60
2018-05-04T23:18:23.686Z,11.60
2018-05-04T23:20:53.717Z,11.60
2018-05-04T23:23:23.741Z,11.60
2018-05-04T23:25:53.009Z,11.60
2018-05-04T23:28:23.054Z,11.50
2018-05-04T23:30:52.310Z,11.50
2018-05-04T23:33:21.608Z,11.40
2018-05-04T23:35:50.926Z,11.30
2018-05-04T23:38:20.997Z,11.30
2018-05-04T23:40:50.248Z,11.30
2018-05-04T23:43:20.276Z,11.30
2018-05-04T23:45:50.372Z,11.30
2018-05-04T23:48:19.613Z,11.20
2018-05-04T23:50:48.875Z,11.20
2018-05-04T23:53:18.910Z,11.20
2018-05-04T23:55:48.933Z,11.20
2018-05-04T23:58:18.229Z,11.20
